createdAt,value
2022-08-04T00:01:48.469Z,23.86
2022-08-04T00:04:28.756Z,23.86
2022-08-04T00:07:04.671Z,23.85
2022-08-04T00:09:43.437Z,23.76
2022-08-04T00:12:12.222Z,23.83
2022-08-04T00:14:45.872Z,23.84
2022-08-04T00:17:13.006Z,23.80
2022-08-04T00:19:44.797Z,23.79
2022-08-04T00:22:12.557Z,23.78
2022-08-04T00:24:39.457Z,23.80
2022-08-04T00:27:07.243Z,23.78
2022-08-04T00:29:34.866Z,23.71
2022-08-04T00:32:02.325Z,23.77
2022-08-04T00:34:29.807Z,23.70
2022-08-04T00:36:57.151Z,23.65
2022-08-04T00:39:24.693Z,23.66
2022-08-04T00:41:56.550Z,23.77
2022-08-04T00:44:38.300Z,23.75
2022-08-04T00:47:15.031Z,23.72
2022-08-04T00:49:47.654Z,23.68
2022-08-04T00:52:53.246Z,23.63
2022-08-04T00:55:31.796Z,23.67
2022-08-04T00:57:58.413Z,23.70
2022-08-04T01:00:25.404Z,23.74
2022-08-04T01:02:58.134Z,23.72
2022-08-04T01:05:43.417Z,23.71
2022-08-04T01:08:13.283Z,23.69
2022-08-04T01:10:52.154Z,23.67
2022-08-04T01:13:18.794Z,23.66
2022-08-04T01:15:59.565Z,23.60
2022-08-04T01:18:47.822Z,23.69
2022-08-04T01:21:29.512Z,23.65
2022-08-04T01:24:05.898Z,23.58
2022-08-04T01:26:58.187Z,23.57
2022-08-04T01:29:27.486Z,23.48
2022-08-04T01:32:13.536Z,23.35
2022-08-04T01:34:49.942Z,23.48
2022-08-04T01:37:35.295Z,23.42
2022-08-04T01:40:05.958Z,23.41
2022-08-04T01:42:33.954Z,23.45
2022-08-04T01:45:01.984Z,23.44
2022-08-04T01:47:30.087Z,23.38
2022-08-04T01:50:02.387Z,23.35
2022-08-04T01:52:29.335Z,23.44
2022-08-04T01:54:57.951Z,23.35
2022-08-04T01:57:38.806Z,23.40
2022-08-04T02:00:07.397Z,23.36
2022-08-04T02:02:34.597Z,23.37
2022-08-04T02:05:01.594Z,23.35
2022-08-04T02:07:35.918Z,23.38
2022-08-04T02:10:07.316Z,23.27
2022-08-04T02:12:58.360Z,23.37
2022-08-04T02:15:27.719Z,23.26
2022-08-04T02:18:00.578Z,23.30
2022-08-04T02:20:30.026Z,23.28
2022-08-04T02:23:00.879Z,23.37
2022-08-04T02:25:28.762Z,23.35
2022-08-04T02:27:59.297Z,23.28
2022-08-04T02:30:31.338Z,23.28
2022-08-04T02:33:02.216Z,23.32
2022-08-04T02:35:29.375Z,23.33
2022-08-04T02:38:04.976Z,23.30
2022-08-04T02:40:32.061Z,23.32
2022-08-04T02:42:59.577Z,23.24
2022-08-04T02:45:27.773Z,23.28
2022-08-04T02:48:18.428Z,23.23
2022-08-04T02:50:44.153Z,23.21
2022-08-04T02:53:14.014Z,23.25
2022-08-04T02:55:50.937Z,23.15
2022-08-04T02:58:20.807Z,23.19
2022-08-04T03:00:48.543Z,23.17
2022-08-04T03:03:26.386Z,23.21
2022-08-04T03:06:10.111Z,23.21
2022-08-04T03:08:40.059Z,23.18
2022-08-04T03:11:25.687Z,23.18
2022-08-04T03:14:05.284Z,23.17
2022-08-04T03:17:01.034Z,23.12
2022-08-04T03:19:46.330Z,23.09
2022-08-04T03:22:15.942Z,23.16
2022-08-04T03:25:01.620Z,23.15
2022-08-04T03:27:51.368Z,23.15
2022-08-04T03:30:29.552Z,23.16
2022-08-04T03:33:05.451Z,23.07
2022-08-04T03:35:32.405Z,23.07
2022-08-04T03:38:05.258Z,23.05
2022-08-04T03:40:52.260Z,23.09
2022-08-04T03:43:58.808Z,23.08
2022-08-04T03:46:26.593Z,23.08
2022-08-04T03:49:02.293Z,22.99
2022-08-04T03:51:56.972Z,23.01
2022-08-04T03:54:42.323Z,22.98
2022-08-04T03:57:24.062Z,22.97
2022-08-04T04:00:23.305Z,23.01
2022-08-04T04:02:52.922Z,22.94
2022-08-04T04:05:58.754Z,22.88
2022-08-04T04:08:45.171Z,22.84
2022-08-04T04:11:31.981Z,22.92
2022-08-04T04:14:10.271Z,22.93
2022-08-04T04:16:42.855Z,22.88
2022-08-04T04:19:23.412Z,22.83
2022-08-04T04:21:50.089Z,22.81
2022-08-04T04:24:32.773Z,22.82
2022-08-04T04:27:20.873Z,22.82
2022-08-04T04:30:00.208Z,22.79
2022-08-04T04:32:40.511Z,22.77
2022-08-04T04:35:25.847Z,22.79
2022-08-04T04:37:55.517Z,22.83
2022-08-04T04:40:31.694Z,22.78
2022-08-04T04:43:17.470Z,22.69
2022-08-04T04:45:56.578Z,22.67
2022-08-04T04:48:39.024Z,22.68
2022-08-04T04:51:28.837Z,22.74
2022-08-04T04:54:24.864Z,22.59
2022-08-04T04:57:07.733Z,22.67
2022-08-04T04:59:37.195Z,22.66
2022-08-04T05:02:22.442Z,22.54
2022-08-04T05:04:54.929Z,22.58
2022-08-04T05:07:40.125Z,22.52
2022-08-04T05:10:25.426Z,22.48
2022-08-04T05:14:35.803Z,22.50
2022-08-04T05:15:45.761Z,22.51
2022-08-04T05:18:14.682Z,22.56
2022-08-04T05:20:43.512Z,22.63
2022-08-04T05:23:18.596Z,22.53
2022-08-04T05:25:50.091Z,22.53
2022-08-04T05:28:33.663Z,22.49
2022-08-04T05:31:05.676Z,22.43
2022-08-04T05:33:42.821Z,22.42
2022-08-04T05:36:27.182Z,22.38
2022-08-04T05:39:04.184Z,22.42
2022-08-04T05:41:45.853Z,22.40
2022-08-04T05:44:18.404Z,22.35
2022-08-04T05:46:54.568Z,22.43
2022-08-04T05:49:22.347Z,22.42
2022-08-04T05:51:49.600Z,22.37
2022-08-04T05:54:17.970Z,22.44
2022-08-04T05:56:44.898Z,22.42
2022-08-04T05:59:18.078Z,22.21
2022-08-04T06:01:55.842Z,22.17
2022-08-04T06:04:25.357Z,22.23
2022-08-04T06:06:52.541Z,22.08
2022-08-04T06:09:19.281Z,22.08
2022-08-04T06:12:00.642Z,22.34
2022-08-04T06:14:38.533Z,22.15
2022-08-04T06:18:32.175Z,22.09
2022-08-04T06:20:00.308Z,22.03
2022-08-04T06:22:34.195Z,22.21
2022-08-04T06:25:02.271Z,22.34
2022-08-04T06:27:29.858Z,22.22
2022-08-04T06:29:57.723Z,22.31
2022-08-04T06:32:35.496Z,22.28
2022-08-04T06:35:06.280Z,22.21
2022-08-04T06:37:42.780Z,22.28
2022-08-04T06:40:29.763Z,22.19
2022-08-04T06:42:58.349Z,22.29
2022-08-04T06:45:25.645Z,22.23
2022-08-04T06:47:53.055Z,22.20
2022-08-04T06:51:31.390Z,22.07
2022-08-04T06:53:06.941Z,22.11
2022-08-04T06:55:34.448Z,22.16
2022-08-04T06:58:03.339Z,22.29
2022-08-04T07:00:31.207Z,22.28
2022-08-04T07:02:58.830Z,22.18
2022-08-04T07:05:25.613Z,22.28
2022-08-04T07:07:57.141Z,22.27
2022-08-04T07:10:25.164Z,22.15
2022-08-04T07:12:53.034Z,22.06
2022-08-04T07:15:21.091Z,22.03
2022-08-04T07:17:50.270Z,21.98
2022-08-04T07:20:34.251Z,21.93
2022-08-04T07:23:02.302Z,22.07
2022-08-04T07:25:58.628Z,22.10
2022-08-04T07:28:15.879Z,22.04
2022-08-04T07:30:44.205Z,22.11
2022-08-04T07:33:11.540Z,22.00
2022-08-04T07:36:05.579Z,22.05
2022-08-04T07:38:27.776Z,21.98
2022-08-04T07:40:55.171Z,21.95
2022-08-04T07:43:22.206Z,21.90
2022-08-04T07:45:49.183Z,22.00
2022-08-04T07:48:19.000Z,21.98
2022-08-04T07:50:46.102Z,22.07
2022-08-04T07:53:53.269Z,22.14
2022-08-04T07:56:00.129Z,22.07
2022-08-04T07:58:30.057Z,22.08
2022-08-04T08:00:58.034Z,22.04
2022-08-04T08:03:25.453Z,22.15
2022-08-04T08:05:54.823Z,22.15
2022-08-04T08:08:39.766Z,22.16
2022-08-04T08:11:09.896Z,22.15
2022-08-04T08:13:37.023Z,22.23
2022-08-04T08:16:04.374Z,22.23
2022-08-04T08:18:31.464Z,22.16
2022-08-04T08:20:58.690Z,22.20
2022-08-04T08:23:26.144Z,22.23
2022-08-04T08:25:52.952Z,22.21
2022-08-04T08:28:19.676Z,22.09
2022-08-04T08:30:52.773Z,22.13
2022-08-04T08:33:20.851Z,22.07
2022-08-04T08:35:54.088Z,22.23
2022-08-04T08:38:26.186Z,22.19
2022-08-04T08:40:59.080Z,22.24
2022-08-04T08:44:04.559Z,22.31
2022-08-04T08:46:50.812Z,22.23
2022-08-04T08:50:02.462Z,22.25
2022-08-04T08:52:55.305Z,22.27
2022-08-04T08:55:46.045Z,22.20
2022-08-04T08:58:25.860Z,22.26
2022-08-04T09:01:11.606Z,22.28
2022-08-04T09:03:41.541Z,22.28
2022-08-04T09:06:11.202Z,22.19
2022-08-04T09:08:46.235Z,22.29
2022-08-04T09:11:15.873Z,22.35
2022-08-04T09:13:48.755Z,22.24
2022-08-04T09:16:22.618Z,22.26
2022-08-04T09:19:38.183Z,22.32
2022-08-04T09:22:02.397Z,22.40
2022-08-04T09:24:36.680Z,22.44
2022-08-04T09:27:05.774Z,22.46
2022-08-04T09:29:35.601Z,22.42
2022-08-04T09:32:14.595Z,22.41
2022-08-04T09:35:05.241Z,22.44
2022-08-04T09:37:46.158Z,22.47
2022-08-04T09:40:31.656Z,22.39
2022-08-04T09:43:28.031Z,22.48
2022-08-04T09:46:31.942Z,22.52
2022-08-04T09:49:21.945Z,22.54
2022-08-04T09:51:57.875Z,22.56
2022-08-04T09:54:44.295Z,22.60
2022-08-04T09:57:23.535Z,22.64
2022-08-04T10:00:03.017Z,22.67
2022-08-04T10:02:34.787Z,22.75
2022-08-04T10:05:03.672Z,22.81
2022-08-04T10:08:15.704Z,22.83
2022-08-04T10:11:07.819Z,22.81
2022-08-04T10:14:00.741Z,22.82
2022-08-04T10:16:40.543Z,22.82
2022-08-04T10:19:19.652Z,22.90
2022-08-04T10:21:59.435Z,22.95
2022-08-04T10:25:04.145Z,22.94
2022-08-04T10:27:35.163Z,22.96
2022-08-04T10:30:12.418Z,22.96
2022-08-04T10:32:57.699Z,22.99
2022-08-04T10:35:29.511Z,23.07
2022-08-04T10:38:13.556Z,23.12
2022-08-04T10:40:45.792Z,23.19
2022-08-04T10:43:20.613Z,23.21
2022-08-04T10:46:18.768Z,23.24
2022-08-04T10:49:00.304Z,23.23
2022-08-04T10:51:58.252Z,23.30
2022-08-04T10:54:45.877Z,23.34
2022-08-04T10:57:24.163Z,23.39
2022-08-04T11:00:03.165Z,23.38
2022-08-04T11:02:36.442Z,23.38
2022-08-04T11:05:15.900Z,23.39
2022-08-04T11:07:47.646Z,23.41
2022-08-04T11:10:15.483Z,23.47
2022-08-04T11:12:42.809Z,23.49
2022-08-04T11:15:11.381Z,23.51
2022-08-04T11:17:59.250Z,23.50
2022-08-04T11:20:41.390Z,23.53
2022-08-04T11:23:12.300Z,23.58
2022-08-04T11:25:47.249Z,23.60
2022-08-04T11:28:23.883Z,23.63
2022-08-04T11:31:10.769Z,23.62
2022-08-04T11:33:44.381Z,23.63
2022-08-04T11:36:15.979Z,23.61
2022-08-04T11:39:01.588Z,23.63
2022-08-04T11:41:47.155Z,23.66
2022-08-04T11:44:18.560Z,23.64
2022-08-04T11:46:49.990Z,23.67
2022-08-04T11:49:26.945Z,23.70
2022-08-04T11:51:55.985Z,23.73
2022-08-04T11:54:22.659Z,23.75
2022-08-04T11:56:50.380Z,23.75
2022-08-04T11:59:26.243Z,23.78
2022-08-04T12:02:11.807Z,23.80
2022-08-04T12:04:58.094Z,23.81
2022-08-04T12:07:49.657Z,23.81
2022-08-04T12:10:41.653Z,23.86
2022-08-04T12:13:14.802Z,23.87
2022-08-04T12:15:56.429Z,23.87
2022-08-04T12:18:25.213Z,23.92
2022-08-04T12:21:00.286Z,23.92
2022-08-04T12:23:32.876Z,23.93
2022-08-04T12:26:02.681Z,23.92
2022-08-04T12:29:07.130Z,23.93
2022-08-04T12:31:39.015Z,23.95
2022-08-04T12:34:13.127Z,23.94
2022-08-04T12:36:45.992Z,23.93
2022-08-04T12:39:21.230Z,23.94
2022-08-04T12:42:03.892Z,23.94
2022-08-04T12:44:39.147Z,23.95
2022-08-04T12:47:26.591Z,23.96
2022-08-04T12:50:00.822Z,23.95
2022-08-04T12:52:51.547Z,23.96
2022-08-04T12:55:16.974Z,23.96
2022-08-04T12:57:44.064Z,23.96
2022-08-04T13:00:11.537Z,23.97
2022-08-04T13:02:42.079Z,23.99
2022-08-04T13:05:09.424Z,23.97
2022-08-04T13:07:47.392Z,23.96
2022-08-04T13:10:18.331Z,23.97
2022-08-04T13:12:53.219Z,23.97
2022-08-04T13:15:22.113Z,23.99
2022-08-04T13:17:57.100Z,24.00
2022-08-04T13:20:34.424Z,24.01
2022-08-04T13:23:06.237Z,24.02
2022-08-04T13:26:44.208Z,24.03
2022-08-04T13:28:28.935Z,24.03
2022-08-04T13:30:58.856Z,24.03
2022-08-04T13:33:31.203Z,24.04
2022-08-04T13:36:00.073Z,24.05
2022-08-04T13:38:28.319Z,24.06
2022-08-04T13:41:00.145Z,24.08
2022-08-04T13:44:16.152Z,24.07
2022-08-04T13:46:44.424Z,24.07
2022-08-04T13:49:54.271Z,24.07
2022-08-04T13:52:10.554Z,24.09
2022-08-04T13:54:42.357Z,24.08
2022-08-04T13:57:15.359Z,24.09
2022-08-04T13:59:44.744Z,24.09
2022-08-04T14:02:28.636Z,24.07
2022-08-04T14:04:57.678Z,24.10
2022-08-04T14:07:25.963Z,24.12
2022-08-04T14:10:02.499Z,24.12
2022-08-04T14:12:45.568Z,24.12
2022-08-04T14:16:01.657Z,24.14
2022-08-04T14:18:27.692Z,24.12
2022-08-04T14:21:02.389Z,24.10
2022-08-04T14:23:33.312Z,24.10
2022-08-04T14:26:00.397Z,24.11
2022-08-04T14:28:47.272Z,24.10
2022-08-04T14:31:24.937Z,24.12
2022-08-04T14:34:01.090Z,24.14
2022-08-04T14:37:13.436Z,24.16
2022-08-04T14:39:39.269Z,24.16
2022-08-04T14:42:06.488Z,24.14
2022-08-04T14:44:52.217Z,24.16
2022-08-04T14:47:18.929Z,24.16
2022-08-04T14:50:04.541Z,24.16
2022-08-04T14:52:31.341Z,24.15
2022-08-04T14:54:58.152Z,24.19
2022-08-04T14:57:27.476Z,24.18
2022-08-04T15:00:01.589Z,24.19
2022-08-04T15:02:29.961Z,24.18
2022-08-04T15:04:57.688Z,24.19
2022-08-04T15:07:24.967Z,24.18
2022-08-04T15:09:51.876Z,24.18
2022-08-04T15:12:18.750Z,24.19
2022-08-04T15:14:45.574Z,24.20
2022-08-04T15:17:30.036Z,24.21
2022-08-04T15:19:57.390Z,24.21
2022-08-04T15:22:24.226Z,24.22
2022-08-04T15:24:55.164Z,24.23
2022-08-04T15:27:24.337Z,24.21
2022-08-04T15:30:00.604Z,24.21
2022-08-04T15:32:32.558Z,24.21
2022-08-04T15:35:03.606Z,24.19
2022-08-04T15:37:37.427Z,24.19
2022-08-04T15:40:33.088Z,24.20
2022-08-04T15:43:23.531Z,24.19
2022-08-04T15:46:28.832Z,24.21
2022-08-04T15:48:39.227Z,24.21
2022-08-04T15:51:14.621Z,24.20
2022-08-04T15:54:01.821Z,24.19
2022-08-04T15:56:28.827Z,24.22
2022-08-04T15:58:57.063Z,24.20
2022-08-04T16:01:23.900Z,24.25
2022-08-04T16:03:59.851Z,24.23
2022-08-04T16:06:29.507Z,24.21
2022-08-04T16:09:01.040Z,24.18
2022-08-04T16:11:32.725Z,24.18
2022-08-04T16:13:59.785Z,24.19
2022-08-04T16:16:31.712Z,24.20
2022-08-04T16:19:06.043Z,24.18
2022-08-04T16:21:46.668Z,24.19
2022-08-04T16:24:21.760Z,24.17
2022-08-04T16:26:54.234Z,24.15
2022-08-04T16:29:40.366Z,24.19
2022-08-04T16:32:11.178Z,24.19
2022-08-04T16:34:53.747Z,24.20
2022-08-04T16:37:22.254Z,24.16
2022-08-04T16:39:50.786Z,24.20
2022-08-04T16:42:30.453Z,24.18
2022-08-04T16:45:00.094Z,24.18
2022-08-04T16:47:45.705Z,24.21
2022-08-04T16:50:12.526Z,24.22
2022-08-04T16:53:05.794Z,24.21
2022-08-04T16:55:32.879Z,24.22
2022-08-04T16:57:59.670Z,24.20
2022-08-04T17:00:31.233Z,24.20
2022-08-04T17:02:57.977Z,24.24
2022-08-04T17:05:39.774Z,24.20
2022-08-04T17:08:29.263Z,24.21
2022-08-04T17:10:54.568Z,24.19
2022-08-04T17:14:03.487Z,24.21
2022-08-04T17:16:13.429Z,24.19
2022-08-04T17:18:41.740Z,24.19
2022-08-04T17:21:08.418Z,24.19
2022-08-04T17:24:12.627Z,24.18
2022-08-04T17:26:40.173Z,24.21
2022-08-04T17:29:12.082Z,24.22
2022-08-04T17:31:40.529Z,24.22
2022-08-04T17:34:16.059Z,24.20
2022-08-04T17:36:43.877Z,24.20
2022-08-04T17:39:21.423Z,24.21
2022-08-04T17:41:49.270Z,24.18
2022-08-04T17:44:16.462Z,24.19
2022-08-04T17:46:48.216Z,24.20
2022-08-04T17:49:20.146Z,24.19
2022-08-04T17:52:06.373Z,24.23
2022-08-04T17:54:38.917Z,24.21
2022-08-04T17:57:19.587Z,24.16
2022-08-04T17:59:59.115Z,24.23
2022-08-04T18:02:32.736Z,24.15
2022-08-04T18:05:07.314Z,24.13
2022-08-04T18:08:35.335Z,24.10
2022-08-04T18:13:29.854Z,24.12
2022-08-04T18:16:02.898Z,24.18
2022-08-04T18:18:29.907Z,24.16
2022-08-04T18:20:56.752Z,24.14
2022-08-04T18:23:31.549Z,24.13
2022-08-04T18:25:59.331Z,24.16
2022-08-04T18:28:30.791Z,24.09
2022-08-04T18:31:01.201Z,24.07
2022-08-04T18:33:40.418Z,24.06
2022-08-04T18:36:33.183Z,24.04
2022-08-04T18:38:58.699Z,24.02
2022-08-04T18:41:26.495Z,24.08
2022-08-04T18:43:56.010Z,24.10
2022-08-04T18:46:26.841Z,24.14
2022-08-04T18:48:54.348Z,24.18
2022-08-04T18:51:31.120Z,24.13
2022-08-04T18:53:59.056Z,24.04
2022-08-04T18:56:29.780Z,24.05
2022-08-04T18:58:59.956Z,24.06
2022-08-04T19:01:30.291Z,24.04
2022-08-04T19:04:33.761Z,23.97
2022-08-04T19:07:23.418Z,23.95
2022-08-04T19:09:51.435Z,23.98
2022-08-04T19:12:26.780Z,24.02
2022-08-04T19:14:58.352Z,23.94
2022-08-04T19:20:15.903Z,23.91
2022-08-04T19:25:59.974Z,23.82
2022-08-04T19:28:28.036Z,23.82
2022-08-04T19:30:57.361Z,23.82
2022-08-04T19:33:25.013Z,23.78
2022-08-04T19:35:52.583Z,23.76
2022-08-04T19:38:21.397Z,23.72
2022-08-04T19:40:52.775Z,23.73
2022-08-04T19:43:23.014Z,23.79
2022-08-04T19:45:50.445Z,23.75
2022-08-04T19:48:19.547Z,23.81
2022-08-04T19:50:49.137Z,23.77
2022-08-04T19:53:18.895Z,23.81
2022-08-04T19:55:49.486Z,23.77
2022-08-04T19:58:18.119Z,23.76
2022-08-04T20:00:51.320Z,23.78
2022-08-04T20:03:20.347Z,23.77
2022-08-04T20:05:55.281Z,23.79
2022-08-04T20:08:29.120Z,23.80
2022-08-04T20:10:56.642Z,23.69
2022-08-04T20:13:33.861Z,23.67
2022-08-04T20:16:04.966Z,23.67
2022-08-04T20:18:55.563Z,23.75
2022-08-04T20:21:36.604Z,23.74
2022-08-04T20:24:39.384Z,23.72
2022-08-04T20:26:57.048Z,23.72
2022-08-04T20:29:40.616Z,23.81
2022-08-04T20:32:10.855Z,23.76
2022-08-04T20:34:40.041Z,23.76
2022-08-04T20:37:10.037Z,23.76
2022-08-04T20:39:38.497Z,23.70
2022-08-04T20:42:05.709Z,23.74
2022-08-04T20:44:33.686Z,23.61
2022-08-04T20:47:00.887Z,23.66
2022-08-04T20:49:35.381Z,23.64
2022-08-04T20:52:12.107Z,23.60
2022-08-04T20:54:42.362Z,23.68
2022-08-04T20:57:16.888Z,23.67
2022-08-04T20:59:59.532Z,23.62
2022-08-04T21:02:27.222Z,23.54
2022-08-04T21:04:54.457Z,23.56
2022-08-04T21:07:23.301Z,23.50
2022-08-04T21:09:51.232Z,23.58
2022-08-04T21:12:28.514Z,23.59
2022-08-04T21:14:57.375Z,23.58
2022-08-04T21:17:56.761Z,23.52
2022-08-04T21:20:12.946Z,23.54
2022-08-04T21:22:40.532Z,23.60
2022-08-04T21:25:07.923Z,23.46
2022-08-04T21:27:43.095Z,23.47
2022-08-04T21:30:25.332Z,23.47
2022-08-04T21:32:55.251Z,23.47
2022-08-04T21:35:30.843Z,23.49
2022-08-04T21:38:16.184Z,23.51
2022-08-04T21:40:54.950Z,23.43
2022-08-04T21:43:23.461Z,23.41
2022-08-04T21:45:54.433Z,23.35
2022-08-04T21:48:21.997Z,23.43
2022-08-04T21:50:50.307Z,23.43
2022-08-04T21:53:19.691Z,23.39
2022-08-04T21:56:05.846Z,23.42
2022-08-04T21:58:34.340Z,23.35
2022-08-04T22:01:01.520Z,23.35
2022-08-04T22:03:51.695Z,23.39
2022-08-04T22:06:19.071Z,23.36
2022-08-04T22:11:43.798Z,23.31
2022-08-04T22:14:12.239Z,23.32
2022-08-04T22:16:39.796Z,23.31
2022-08-04T22:19:07.313Z,23.25
2022-08-04T22:21:39.312Z,23.22
2022-08-04T22:24:14.273Z,23.34
2022-08-04T22:26:42.216Z,23.28
2022-08-04T22:29:22.144Z,23.28
2022-08-04T22:31:55.707Z,23.19
2022-08-04T22:34:23.972Z,23.17
2022-08-04T22:36:50.951Z,23.21
2022-08-04T22:39:27.604Z,23.26
2022-08-04T22:42:03.372Z,23.14
2022-08-04T22:44:33.384Z,23.07
2022-08-04T22:47:01.101Z,23.18
2022-08-04T22:49:31.170Z,23.08
2022-08-04T22:51:58.875Z,23.13
2022-08-04T22:54:28.606Z,23.04
2022-08-04T22:56:56.952Z,23.15
2022-08-04T22:59:26.050Z,23.15
2022-08-04T23:01:59.802Z,23.07
2022-08-04T23:04:29.285Z,23.09
2022-08-04T23:06:56.230Z,23.00
2022-08-04T23:09:50.046Z,23.08
2022-08-04T23:12:29.169Z,23.07
2022-08-04T23:14:57.874Z,23.01
2022-08-04T23:17:27.437Z,22.94
2022-08-04T23:19:55.525Z,22.95
2022-08-04T23:22:42.299Z,22.90
2022-08-04T23:25:16.047Z,22.98
2022-08-04T23:27:51.024Z,22.95
2022-08-04T23:30:24.413Z,23.02
2022-08-04T23:32:56.324Z,22.94
2022-08-04T23:35:24.076Z,23.07
2022-08-04T23:37:56.688Z,22.93
2022-08-04T23:40:33.673Z,22.92
2022-08-04T23:43:02.190Z,23.03
2022-08-04T23:46:07.071Z,23.03
2022-08-04T23:48:26.639Z,22.97
2022-08-04T23:50:53.659Z,22.91
2022-08-04T23:53:22.535Z,22.85
2022-08-04T23:55:49.680Z,22.87
2022-08-04T23:58:18.857Z,22.86
